sensor_id;sensor_type;location;lat;lon;timestamp;P1;durP1;ratioP1;P2;durP2;ratioP2
76566;SDS011;65428;53.194;6.132;2023-09-18T00:02:24;73.68;;;44.78;;
76566;SDS011;65428;53.194;6.132;2023-09-18T00:04:50;86.97;;;44.25;;
76566;SDS011;65428;53.194;6.132;2023-09-18T00:07:17;47.65;;;38.38;;
76566;SDS011;65428;53.194;6.132;2023-09-18T00:09:43;58.63;;;40.93;;
76566;SDS011;65428;53.194;6.132;2023-09-18T00:12:08;96.45;;;47.15;;
76566;SDS011;65428;53.194;6.132;2023-09-18T00:14:35;71.60;;;46.65;;
76566;SDS011;65428;53.194;6.132;2023-09-18T00:17:01;43.83;;;39.22;;
76566;SDS011;65428;53.194;6.132;2023-09-18T00:19:28;59.72;;;43.40;;
76566;SDS011;65428;53.194;6.132;2023-09-18T00:21:53;84.17;;;48.37;;
76566;SDS011;65428;53.194;6.132;2023-09-18T00:24:19;65.43;;;42.42;;
76566;SDS011;65428;53.194;6.132;2023-09-18T00:26:46;169.30;;;55.08;;
76566;SDS011;65428;53.194;6.132;2023-09-18T00:29:13;100.43;;;49.40;;
76566;SDS011;65428;53.194;6.132;2023-09-18T00:31:39;101.87;;;48.50;;
76566;SDS011;65428;53.194;6.132;2023-09-18T00:34:04;126.47;;;48.22;;
76566;SDS011;65428;53.194;6.132;2023-09-18T00:36:30;115.85;;;52.75;;
76566;SDS011;65428;53.194;6.132;2023-09-18T00:38:56;125.20;;;50.23;;
76566;SDS011;65428;53.194;6.132;2023-09-18T00:41:21;95.18;;;48.33;;
76566;SDS011;65428;53.194;6.132;2023-09-18T00:43:47;151.77;;;53.73;;
76566;SDS011;65428;53.194;6.132;2023-09-18T00:46:13;124.70;;;51.38;;
76566;SDS011;65428;53.194;6.132;2023-09-18T00:48:39;171.83;;;56.47;;
76566;SDS011;65428;53.194;6.132;2023-09-18T00:51:05;201.43;;;63.03;;
76566;SDS011;65428;53.194;6.132;2023-09-18T00:53:33;115.70;;;54.53;;
76566;SDS011;65428;53.194;6.132;2023-09-18T00:55:59;109.47;;;52.72;;
76566;SDS011;65428;53.194;6.132;2023-09-18T00:58:26;102.40;;;53.10;;
76566;SDS011;65428;53.194;6.132;2023-09-18T01:00:52;93.35;;;51.88;;
76566;SDS011;65428;53.194;6.132;2023-09-18T01:03:19;145.30;;;59.17;;
76566;SDS011;65428;53.194;6.132;2023-09-18T01:05:46;101.45;;;51.60;;
76566;SDS011;65428;53.194;6.132;2023-09-18T01:08:12;108.90;;;54.38;;
76566;SDS011;65428;53.194;6.132;2023-09-18T01:10:44;62.50;;;46.97;;
76566;SDS011;65428;53.194;6.132;2023-09-18T01:13:41;85.78;;;51.55;;
76566;SDS011;65428;53.194;6.132;2023-09-18T01:16:35;128.77;;;58.22;;
76566;SDS011;65428;53.194;6.132;2023-09-18T01:22:15;92.93;;;52.05;;
76566;SDS011;65428;53.194;6.132;2023-09-18T01:24:42;71.25;;;49.60;;
76566;SDS011;65428;53.194;6.132;2023-09-18T01:27:12;129.03;;;60.17;;
76566;SDS011;65428;53.194;6.132;2023-09-18T01:29:39;80.22;;;51.80;;
76566;SDS011;65428;53.194;6.132;2023-09-18T01:32:05;72.70;;;49.55;;
76566;SDS011;65428;53.194;6.132;2023-09-18T01:34:41;78.50;;;48.75;;
76566;SDS011;65428;53.194;6.132;2023-09-18T01:37:11;99.43;;;58.50;;
76566;SDS011;65428;53.194;6.132;2023-09-18T01:39:37;107.47;;;59.88;;
76566;SDS011;65428;53.194;6.132;2023-09-18T01:42:05;91.13;;;56.03;;
76566;SDS011;65428;53.194;6.132;2023-09-18T01:44:32;86.13;;;52.28;;
76566;SDS011;65428;53.194;6.132;2023-09-18T01:46:58;60.00;;;46.45;;
76566;SDS011;65428;53.194;6.132;2023-09-18T01:49:29;57.05;;;46.42;;
76566;SDS011;65428;53.194;6.132;2023-09-18T01:51:57;70.55;;;51.42;;
76566;SDS011;65428;53.194;6.132;2023-09-18T01:54:23;75.13;;;52.58;;
76566;SDS011;65428;53.194;6.132;2023-09-18T01:56:49;69.20;;;50.78;;
76566;SDS011;65428;53.194;6.132;2023-09-18T01:59:16;70.17;;;50.27;;
76566;SDS011;65428;53.194;6.132;2023-09-18T02:01:43;77.22;;;53.67;;
76566;SDS011;65428;53.194;6.132;2023-09-18T02:04:09;76.93;;;52.55;;
76566;SDS011;65428;53.194;6.132;2023-09-18T02:06:35;78.97;;;52.73;;
76566;SDS011;65428;53.194;6.132;2023-09-18T02:09:01;105.10;;;61.15;;
76566;SDS011;65428;53.194;6.132;2023-09-18T02:11:28;95.30;;;59.80;;
76566;SDS011;65428;53.194;6.132;2023-09-18T02:13:54;83.32;;;55.30;;
76566;SDS011;65428;53.194;6.132;2023-09-18T02:16:21;78.93;;;54.72;;
76566;SDS011;65428;53.194;6.132;2023-09-18T02:18:47;127.93;;;67.17;;
76566;SDS011;65428;53.194;6.132;2023-09-18T02:21:19;84.05;;;55.20;;
76566;SDS011;65428;53.194;6.132;2023-09-18T02:23:48;94.28;;;58.78;;
76566;SDS011;65428;53.194;6.132;2023-09-18T02:26:16;68.15;;;49.30;;
76566;SDS011;65428;53.194;6.132;2023-09-18T02:28:44;85.55;;;54.78;;
76566;SDS011;65428;53.194;6.132;2023-09-18T02:31:10;61.00;;;47.70;;
76566;SDS011;65428;53.194;6.132;2023-09-18T02:33:37;85.72;;;57.17;;
76566;SDS011;65428;53.194;6.132;2023-09-18T02:36:03;84.65;;;57.10;;
76566;SDS011;65428;53.194;6.132;2023-09-18T02:38:29;83.18;;;55.45;;
76566;SDS011;65428;53.194;6.132;2023-09-18T02:40:57;85.63;;;55.67;;
76566;SDS011;65428;53.194;6.132;2023-09-18T02:43:23;81.25;;;56.05;;
76566;SDS011;65428;53.194;6.132;2023-09-18T02:45:49;93.50;;;59.78;;
76566;SDS011;65428;53.194;6.132;2023-09-18T02:48:15;68.40;;;50.50;;
76566;SDS011;65428;53.194;6.132;2023-09-18T02:50:41;84.85;;;56.53;;
76566;SDS011;65428;53.194;6.132;2023-09-18T02:53:09;72.38;;;51.53;;
76566;SDS011;65428;53.194;6.132;2023-09-18T02:55:41;88.68;;;58.03;;
76566;SDS011;65428;53.194;6.132;2023-09-18T02:58:08;80.13;;;55.88;;
76566;SDS011;65428;53.194;6.132;2023-09-18T03:00:35;86.47;;;58.63;;
76566;SDS011;65428;53.194;6.132;2023-09-18T03:03:07;70.95;;;54.00;;
76566;SDS011;65428;53.194;6.132;2023-09-18T03:05:33;85.17;;;57.17;;
76566;SDS011;65428;53.194;6.132;2023-09-18T03:07:58;103.78;;;62.88;;
76566;SDS011;65428;53.194;6.132;2023-09-18T03:10:24;96.10;;;62.20;;
76566;SDS011;65428;53.194;6.132;2023-09-18T03:12:50;92.20;;;61.10;;
76566;SDS011;65428;53.194;6.132;2023-09-18T03:15:15;86.25;;;59.35;;
76566;SDS011;65428;53.194;6.132;2023-09-18T03:17:41;90.53;;;60.60;;
76566;SDS011;65428;53.194;6.132;2023-09-18T03:20:07;76.95;;;58.05;;
76566;SDS011;65428;53.194;6.132;2023-09-18T03:22:34;112.13;;;65.90;;
76566;SDS011;65428;53.194;6.132;2023-09-18T03:25:00;80.93;;;57.27;;
76566;SDS011;65428;53.194;6.132;2023-09-18T03:27:25;90.05;;;61.38;;
76566;SDS011;65428;53.194;6.132;2023-09-18T03:29:57;82.82;;;58.58;;
76566;SDS011;65428;53.194;6.132;2023-09-18T03:32:23;75.40;;;56.30;;
76566;SDS011;65428;53.194;6.132;2023-09-18T03:34:52;79.50;;;57.55;;
76566;SDS011;65428;53.194;6.132;2023-09-18T03:37:18;86.78;;;60.55;;
76566;SDS011;65428;53.194;6.132;2023-09-18T03:39:44;85.35;;;61.60;;
76566;SDS011;65428;53.194;6.132;2023-09-18T03:42:10;71.43;;;56.10;;
76566;SDS011;65428;53.194;6.132;2023-09-18T03:44:36;83.07;;;60.27;;
76566;SDS011;65428;53.194;6.132;2023-09-18T03:47:02;69.30;;;54.50;;
76566;SDS011;65428;53.194;6.132;2023-09-18T03:49:28;70.57;;;55.42;;
76566;SDS011;65428;53.194;6.132;2023-09-18T03:51:54;82.35;;;59.58;;
76566;SDS011;65428;53.194;6.132;2023-09-18T03:54:20;70.53;;;56.33;;
76566;SDS011;65428;53.194;6.132;2023-09-18T03:56:45;67.55;;;54.13;;
76566;SDS011;65428;53.194;6.132;2023-09-18T03:59:12;72.53;;;55.60;;
76566;SDS011;65428;53.194;6.132;2023-09-18T04:01:38;80.05;;;58.58;;
76566;SDS011;65428;53.194;6.132;2023-09-18T04:04:04;62.25;;;52.00;;
76566;SDS011;65428;53.194;6.132;2023-09-18T04:06:40;63.60;;;52.90;;
76566;SDS011;65428;53.194;6.132;2023-09-18T04:09:06;63.97;;;52.20;;
76566;SDS011;65428;53.194;6.132;2023-09-18T04:11:32;71.43;;;56.00;;
76566;SDS011;65428;53.194;6.132;2023-09-18T04:13:58;54.07;;;48.23;;
76566;SDS011;65428;53.194;6.132;2023-09-18T04:16:28;61.60;;;49.40;;
76566;SDS011;65428;53.194;6.132;2023-09-18T04:18:56;60.40;;;51.00;;
76566;SDS011;65428;53.194;6.132;2023-09-18T04:21:22;56.13;;;48.63;;
76566;SDS011;65428;53.194;6.132;2023-09-18T04:23:48;53.95;;;47.22;;
76566;SDS011;65428;53.194;6.132;2023-09-18T04:26:20;50.72;;;44.83;;
76566;SDS011;65428;53.194;6.132;2023-09-18T04:28:46;54.85;;;47.90;;
76566;SDS011;65428;53.194;6.132;2023-09-18T04:31:12;47.72;;;42.70;;
76566;SDS011;65428;53.194;6.132;2023-09-18T04:33:38;48.90;;;43.63;;
76566;SDS011;65428;53.194;6.132;2023-09-18T04:36:04;51.08;;;43.97;;
76566;SDS011;65428;53.194;6.132;2023-09-18T04:38:29;47.17;;;42.17;;
76566;SDS011;65428;53.194;6.132;2023-09-18T04:40:58;51.53;;;45.87;;
76566;SDS011;65428;53.194;6.132;2023-09-18T04:43:25;44.63;;;40.13;;
76566;SDS011;65428;53.194;6.132;2023-09-18T04:45:50;45.75;;;40.97;;
76566;SDS011;65428;53.194;6.132;2023-09-18T04:48:16;48.67;;;43.45;;
76566;SDS011;65428;53.194;6.132;2023-09-18T04:50:43;43.05;;;38.65;;
76566;SDS011;65428;53.194;6.132;2023-09-18T04:53:08;44.65;;;40.10;;
76566;SDS011;65428;53.194;6.132;2023-09-18T04:55:34;44.50;;;39.80;;
76566;SDS011;65428;53.194;6.132;2023-09-18T04:58:00;44.17;;;39.63;;
76566;SDS011;65428;53.194;6.132;2023-09-18T05:00:26;46.33;;;41.53;;
76566;SDS011;65428;53.194;6.132;2023-09-18T05:02:54;44.00;;;39.42;;
76566;SDS011;65428;53.194;6.132;2023-09-18T05:05:20;42.43;;;38.07;;
76566;SDS011;65428;53.194;6.132;2023-09-18T05:07:45;44.33;;;39.67;;
76566;SDS011;65428;53.194;6.132;2023-09-18T05:10:11;48.03;;;42.83;;
76566;SDS011;65428;53.194;6.132;2023-09-18T05:12:38;46.90;;;41.35;;
76566;SDS011;65428;53.194;6.132;2023-09-18T05:15:05;45.88;;;40.75;;
76566;SDS011;65428;53.194;6.132;2023-09-18T05:20:17;43.17;;;38.65;;
76566;SDS011;65428;53.194;6.132;2023-09-18T05:22:43;41.92;;;37.45;;
76566;SDS011;65428;53.194;6.132;2023-09-18T05:25:10;43.70;;;38.95;;
76566;SDS011;65428;53.194;6.132;2023-09-18T05:27:36;42.88;;;38.20;;
76566;SDS011;65428;53.194;6.132;2023-09-18T05:30:12;41.17;;;36.80;;
76566;SDS011;65428;53.194;6.132;2023-09-18T05:32:43;43.30;;;38.80;;
76566;SDS011;65428;53.194;6.132;2023-09-18T05:35:10;38.42;;;34.40;;
76566;SDS011;65428;53.194;6.132;2023-09-18T05:37:37;39.60;;;35.40;;
76566;SDS011;65428;53.194;6.132;2023-09-18T05:40:07;43.13;;;38.47;;
76566;SDS011;65428;53.194;6.132;2023-09-18T05:42:38;39.42;;;35.20;;
76566;SDS011;65428;53.194;6.132;2023-09-18T05:45:05;42.58;;;37.80;;
76566;SDS011;65428;53.194;6.132;2023-09-18T05:47:32;36.93;;;33.03;;
76566;SDS011;65428;53.194;6.132;2023-09-18T05:49:58;38.65;;;34.05;;
76566;SDS011;65428;53.194;6.132;2023-09-18T05:52:24;39.57;;;35.33;;
76566;SDS011;65428;53.194;6.132;2023-09-18T05:54:50;36.22;;;32.78;;
76566;SDS011;65428;53.194;6.132;2023-09-18T05:57:16;33.40;;;30.00;;
76566;SDS011;65428;53.194;6.132;2023-09-18T05:59:42;34.20;;;30.60;;
76566;SDS011;65428;53.194;6.132;2023-09-18T06:02:11;35.28;;;30.52;;
76566;SDS011;65428;53.194;6.132;2023-09-18T06:04:37;34.53;;;31.02;;
76566;SDS011;65428;53.194;6.132;2023-09-18T06:07:03;32.17;;;28.83;;
76566;SDS011;65428;53.194;6.132;2023-09-18T06:09:29;35.83;;;32.03;;
76566;SDS011;65428;53.194;6.132;2023-09-18T06:11:54;27.58;;;24.67;;
76566;SDS011;65428;53.194;6.132;2023-09-18T06:14:20;31.43;;;28.03;;
76566;SDS011;65428;53.194;6.132;2023-09-18T06:16:46;31.40;;;27.83;;
76566;SDS011;65428;53.194;6.132;2023-09-18T06:19:12;31.23;;;27.83;;
76566;SDS011;65428;53.194;6.132;2023-09-18T06:21:38;27.45;;;24.67;;
76566;SDS011;65428;53.194;6.132;2023-09-18T06:24:04;29.02;;;26.02;;
76566;SDS011;65428;53.194;6.132;2023-09-18T06:26:30;32.90;;;29.40;;
76566;SDS011;65428;53.194;6.132;2023-09-18T06:28:55;30.83;;;27.65;;
76566;SDS011;65428;53.194;6.132;2023-09-18T06:31:21;29.77;;;26.70;;
76566;SDS011;65428;53.194;6.132;2023-09-18T06:33:48;28.40;;;25.42;;
76566;SDS011;65428;53.194;6.132;2023-09-18T06:36:14;32.78;;;29.30;;
76566;SDS011;65428;53.194;6.132;2023-09-18T06:38:39;30.83;;;27.60;;
76566;SDS011;65428;53.194;6.132;2023-09-18T06:41:05;36.20;;;30.40;;
76566;SDS011;65428;53.194;6.132;2023-09-18T06:43:31;31.23;;;27.60;;
76566;SDS011;65428;53.194;6.132;2023-09-18T06:45:56;34.87;;;31.10;;
76566;SDS011;65428;53.194;6.132;2023-09-18T06:48:23;36.25;;;32.17;;
76566;SDS011;65428;53.194;6.132;2023-09-18T06:50:49;35.73;;;31.47;;
76566;SDS011;65428;53.194;6.132;2023-09-18T06:53:15;38.88;;;33.40;;
76566;SDS011;65428;53.194;6.132;2023-09-18T06:55:41;40.83;;;34.25;;
76566;SDS011;65428;53.194;6.132;2023-09-18T06:58:06;47.47;;;38.17;;
76566;SDS011;65428;53.194;6.132;2023-09-18T07:00:32;43.97;;;34.78;;
76566;SDS011;65428;53.194;6.132;2023-09-18T07:02:58;56.35;;;39.88;;
76566;SDS011;65428;53.194;6.132;2023-09-18T07:05:23;47.93;;;37.43;;
76566;SDS011;65428;53.194;6.132;2023-09-18T07:07:49;77.53;;;44.50;;
76566;SDS011;65428;53.194;6.132;2023-09-18T07:10:15;75.37;;;43.60;;
76566;SDS011;65428;53.194;6.132;2023-09-18T07:12:41;119.45;;;55.63;;
76566;SDS011;65428;53.194;6.132;2023-09-18T07:15:06;91.27;;;49.50;;
76566;SDS011;65428;53.194;6.132;2023-09-18T07:17:33;90.07;;;49.53;;
76566;SDS011;65428;53.194;6.132;2023-09-18T07:20:00;99.47;;;50.50;;
76566;SDS011;65428;53.194;6.132;2023-09-18T07:22:26;77.40;;;47.33;;
76566;SDS011;65428;53.194;6.132;2023-09-18T07:24:51;70.15;;;43.28;;
76566;SDS011;65428;53.194;6.132;2023-09-18T07:27:17;65.17;;;40.90;;
76566;SDS011;65428;53.194;6.132;2023-09-18T07:29:42;53.35;;;35.50;;
76566;SDS011;65428;53.194;6.132;2023-09-18T07:32:09;47.28;;;31.63;;
76566;SDS011;65428;53.194;6.132;2023-09-18T07:34:34;34.27;;;24.30;;
76566;SDS011;65428;53.194;6.132;2023-09-18T07:37:00;30.92;;;22.17;;
76566;SDS011;65428;53.194;6.132;2023-09-18T07:39:26;30.33;;;20.02;;
76566;SDS011;65428;53.194;6.132;2023-09-18T07:41:52;20.53;;;14.77;;
76566;SDS011;65428;53.194;6.132;2023-09-18T07:44:21;22.35;;;15.75;;
76566;SDS011;65428;53.194;6.132;2023-09-18T07:46:47;42.53;;;23.52;;
76566;SDS011;65428;53.194;6.132;2023-09-18T07:49:13;19.48;;;14.27;;
76566;SDS011;65428;53.194;6.132;2023-09-18T07:51:39;20.02;;;14.70;;
76566;SDS011;65428;53.194;6.132;2023-09-18T07:54:06;32.17;;;18.08;;
76566;SDS011;65428;53.194;6.132;2023-09-18T07:56:32;30.13;;;18.45;;
76566;SDS011;65428;53.194;6.132;2023-09-18T07:58:59;26.13;;;16.95;;
76566;SDS011;65428;53.194;6.132;2023-09-18T08:01:25;40.28;;;21.25;;
76566;SDS011;65428;53.194;6.132;2023-09-18T08:03:51;33.47;;;20.80;;
76566;SDS011;65428;53.194;6.132;2023-09-18T08:06:17;25.90;;;18.92;;
76566;SDS011;65428;53.194;6.132;2023-09-18T08:08:44;23.20;;;17.10;;
76566;SDS011;65428;53.194;6.132;2023-09-18T08:11:10;33.97;;;21.45;;
76566;SDS011;65428;53.194;6.132;2023-09-18T08:13:36;43.35;;;23.75;;
76566;SDS011;65428;53.194;6.132;2023-09-18T08:16:03;37.78;;;23.80;;
76566;SDS011;65428;53.194;6.132;2023-09-18T08:18:31;29.43;;;20.83;;
76566;SDS011;65428;53.194;6.132;2023-09-18T08:20:57;35.10;;;21.83;;
76566;SDS011;65428;53.194;6.132;2023-09-18T08:23:24;31.23;;;22.10;;
76566;SDS011;65428;53.194;6.132;2023-09-18T08:25:50;55.05;;;31.20;;
76566;SDS011;65428;53.194;6.132;2023-09-18T08:28:16;53.30;;;28.27;;
76566;SDS011;65428;53.194;6.132;2023-09-18T08:30:42;37.40;;;25.60;;
76566;SDS011;65428;53.194;6.132;2023-09-18T08:33:12;36.75;;;24.35;;
76566;SDS011;65428;53.194;6.132;2023-09-18T08:35:39;31.73;;;22.88;;
76566;SDS011;65428;53.194;6.132;2023-09-18T08:38:05;41.13;;;27.15;;
76566;SDS011;65428;53.194;6.132;2023-09-18T08:40:31;36.42;;;25.08;;
76566;SDS011;65428;53.194;6.132;2023-09-18T08:42:58;38.33;;;25.88;;
76566;SDS011;65428;53.194;6.132;2023-09-18T08:45:27;32.00;;;22.88;;
76566;SDS011;65428;53.194;6.132;2023-09-18T08:48:03;33.60;;;24.73;;
76566;SDS011;65428;53.194;6.132;2023-09-18T08:50:29;31.38;;;22.45;;
76566;SDS011;65428;53.194;6.132;2023-09-18T08:52:55;30.98;;;22.05;;
76566;SDS011;65428;53.194;6.132;2023-09-18T08:55:22;28.85;;;20.83;;
76566;SDS011;65428;53.194;6.132;2023-09-18T08:57:49;22.20;;;18.03;;
76566;SDS011;65428;53.194;6.132;2023-09-18T09:00:17;26.00;;;19.77;;
76566;SDS011;65428;53.194;6.132;2023-09-18T09:02:43;22.92;;;17.08;;
76566;SDS011;65428;53.194;6.132;2023-09-18T09:05:10;19.17;;;16.83;;
76566;SDS011;65428;53.194;6.132;2023-09-18T09:07:35;29.42;;;21.45;;
76566;SDS011;65428;53.194;6.132;2023-09-18T09:10:01;24.45;;;19.13;;
76566;SDS011;65428;53.194;6.132;2023-09-18T09:15:11;26.43;;;21.20;;
76566;SDS011;65428;53.194;6.132;2023-09-18T09:17:37;21.33;;;18.17;;
76566;SDS011;65428;53.194;6.132;2023-09-18T09:20:11;21.87;;;17.47;;
76566;SDS011;65428;53.194;6.132;2023-09-18T09:22:38;20.55;;;18.10;;
76566;SDS011;65428;53.194;6.132;2023-09-18T09:25:27;20.70;;;17.92;;
76566;SDS011;65428;53.194;6.132;2023-09-18T09:27:57;19.48;;;17.02;;
76566;SDS011;65428;53.194;6.132;2023-09-18T09:30:24;22.05;;;19.65;;
76566;SDS011;65428;53.194;6.132;2023-09-18T09:32:52;21.08;;;18.60;;
76566;SDS011;65428;53.194;6.132;2023-09-18T09:35:20;24.27;;;20.17;;
76566;SDS011;65428;53.194;6.132;2023-09-18T09:38:01;20.17;;;18.13;;
76566;SDS011;65428;53.194;6.132;2023-09-18T09:40:38;19.85;;;17.42;;
76566;SDS011;65428;53.194;6.132;2023-09-18T09:43:07;21.40;;;18.30;;
76566;SDS011;65428;53.194;6.132;2023-09-18T09:45:34;21.30;;;17.70;;
76566;SDS011;65428;53.194;6.132;2023-09-18T09:48:02;23.77;;;19.63;;
76566;SDS011;65428;53.194;6.132;2023-09-18T09:50:34;20.48;;;18.27;;
76566;SDS011;65428;53.194;6.132;2023-09-18T09:53:11;20.53;;;18.57;;
76566;SDS011;65428;53.194;6.132;2023-09-18T09:55:38;21.23;;;18.93;;
76566;SDS011;65428;53.194;6.132;2023-09-18T09:58:06;21.27;;;19.17;;
76566;SDS011;65428;53.194;6.132;2023-09-18T10:00:33;18.73;;;16.93;;
76566;SDS011;65428;53.194;6.132;2023-09-18T10:03:11;17.97;;;16.27;;
76566;SDS011;65428;53.194;6.132;2023-09-18T10:05:39;19.20;;;17.40;;
76566;SDS011;65428;53.194;6.132;2023-09-18T10:08:14;17.73;;;16.00;;
76566;SDS011;65428;53.194;6.132;2023-09-18T10:10:45;20.55;;;18.60;;
76566;SDS011;65428;53.194;6.132;2023-09-18T10:13:15;18.48;;;16.80;;
76566;SDS011;65428;53.194;6.132;2023-09-18T10:15:50;22.05;;;20.05;;
76566;SDS011;65428;53.194;6.132;2023-09-18T10:21:32;19.27;;;17.67;;
76566;SDS011;65428;53.194;6.132;2023-09-18T10:26:47;20.48;;;18.65;;
76566;SDS011;65428;53.194;6.132;2023-09-18T10:29:21;41.08;;;38.03;;
76566;SDS011;65428;53.194;6.132;2023-09-18T10:31:48;38.22;;;35.22;;
76566;SDS011;65428;53.194;6.132;2023-09-18T10:34:17;16.20;;;14.80;;
76566;SDS011;65428;53.194;6.132;2023-09-18T10:36:43;20.38;;;18.65;;
76566;SDS011;65428;53.194;6.132;2023-09-18T10:39:12;27.73;;;25.63;;
76566;SDS011;65428;53.194;6.132;2023-09-18T10:41:38;20.77;;;19.13;;
76566;SDS011;65428;53.194;6.132;2023-09-18T10:44:06;18.05;;;16.60;;
76566;SDS011;65428;53.194;6.132;2023-09-18T10:46:35;22.85;;;21.08;;
76566;SDS011;65428;53.194;6.132;2023-09-18T10:49:01;12.70;;;11.60;;
76566;SDS011;65428;53.194;6.132;2023-09-18T10:51:28;14.43;;;13.30;;
76566;SDS011;65428;53.194;6.132;2023-09-18T10:53:56;50.90;;;47.22;;
76566;SDS011;65428;53.194;6.132;2023-09-18T10:56:28;31.00;;;28.83;;
76566;SDS011;65428;53.194;6.132;2023-09-18T10:59:00;22.75;;;21.05;;
76566;SDS011;65428;53.194;6.132;2023-09-18T11:01:28;17.60;;;16.15;;
76566;SDS011;65428;53.194;6.132;2023-09-18T11:04:01;12.95;;;11.95;;
76566;SDS011;65428;53.194;6.132;2023-09-18T11:09:23;16.67;;;15.33;;
76566;SDS011;65428;53.194;6.132;2023-09-18T11:17:39;10.82;;;9.85;;
76566;SDS011;65428;53.194;6.132;2023-09-18T11:20:06;7.35;;;6.75;;
76566;SDS011;65428;53.194;6.132;2023-09-18T11:23:25;9.73;;;8.93;;
76566;SDS011;65428;53.194;6.132;2023-09-18T11:25:40;7.32;;;6.63;;
76566;SDS011;65428;53.194;6.132;2023-09-18T11:28:22;12.87;;;11.87;;
76566;SDS011;65428;53.194;6.132;2023-09-18T11:30:52;5.40;;;4.90;;
76566;SDS011;65428;53.194;6.132;2023-09-18T11:33:30;7.05;;;6.25;;
76566;SDS011;65428;53.194;6.132;2023-09-18T11:36:09;14.23;;;12.82;;
76566;SDS011;65428;53.194;6.132;2023-09-18T11:38:51;13.82;;;12.63;;
76566;SDS011;65428;53.194;6.132;2023-09-18T11:41:30;6.90;;;6.20;;
76566;SDS011;65428;53.194;6.132;2023-09-18T11:46:45;5.30;;;4.78;;
76566;SDS011;65428;53.194;6.132;2023-09-18T11:49:22;6.43;;;5.13;;
76566;SDS011;65428;53.194;6.132;2023-09-18T11:51:51;5.75;;;4.95;;
76566;SDS011;65428;53.194;6.132;2023-09-18T11:54:18;6.82;;;4.70;;
76566;SDS011;65428;53.194;6.132;2023-09-18T11:56:44;15.95;;;14.23;;
76566;SDS011;65428;53.194;6.132;2023-09-18T11:59:10;11.07;;;9.52;;
76566;SDS011;65428;53.194;6.132;2023-09-18T12:01:37;6.38;;;5.03;;
76566;SDS011;65428;53.194;6.132;2023-09-18T12:04:05;12.77;;;9.77;;
76566;SDS011;65428;53.194;6.132;2023-09-18T12:06:38;6.90;;;5.20;;
76566;SDS011;65428;53.194;6.132;2023-09-18T12:09:04;9.67;;;6.83;;
76566;SDS011;65428;53.194;6.132;2023-09-18T12:11:32;6.18;;;4.75;;
76566;SDS011;65428;53.194;6.132;2023-09-18T12:14:07;6.63;;;4.07;;
76566;SDS011;65428;53.194;6.132;2023-09-18T12:16:39;4.90;;;3.20;;
76566;SDS011;65428;53.194;6.132;2023-09-18T12:19:04;5.13;;;4.60;;
76566;SDS011;65428;53.194;6.132;2023-09-18T12:21:33;6.75;;;5.57;;
76566;SDS011;65428;53.194;6.132;2023-09-18T12:24:05;5.25;;;4.57;;
76566;SDS011;65428;53.194;6.132;2023-09-18T12:26:31;6.57;;;5.73;;
76566;SDS011;65428;53.194;6.132;2023-09-18T12:29:04;4.85;;;3.42;;
76566;SDS011;65428;53.194;6.132;2023-09-18T12:31:29;5.40;;;3.13;;
76566;SDS011;65428;53.194;6.132;2023-09-18T12:33:56;4.78;;;3.10;;
76566;SDS011;65428;53.194;6.132;2023-09-18T12:36:23;4.53;;;2.40;;
76566;SDS011;65428;53.194;6.132;2023-09-18T12:38:56;4.93;;;2.15;;
76566;SDS011;65428;53.194;6.132;2023-09-18T12:41:24;5.25;;;2.70;;
76566;SDS011;65428;53.194;6.132;2023-09-18T12:44:00;5.40;;;2.45;;
76566;SDS011;65428;53.194;6.132;2023-09-18T12:46:28;4.88;;;2.10;;
76566;SDS011;65428;53.194;6.132;2023-09-18T12:48:55;4.47;;;2.90;;
76566;SDS011;65428;53.194;6.132;2023-09-18T12:51:28;3.75;;;1.88;;
76566;SDS011;65428;53.194;6.132;2023-09-18T12:54:02;3.70;;;1.70;;
76566;SDS011;65428;53.194;6.132;2023-09-18T12:56:31;4.65;;;2.35;;
76566;SDS011;65428;53.194;6.132;2023-09-18T12:58:57;4.88;;;2.22;;
76566;SDS011;65428;53.194;6.132;2023-09-18T13:01:24;5.20;;;1.90;;
76566;SDS011;65428;53.194;6.132;2023-09-18T13:03:53;4.00;;;1.83;;
76566;SDS011;65428;53.194;6.132;2023-09-18T13:06:30;3.03;;;1.95;;
76566;SDS011;65428;53.194;6.132;2023-09-18T13:08:56;3.77;;;1.90;;
76566;SDS011;65428;53.194;6.132;2023-09-18T13:11:57;4.17;;;2.17;;
76566;SDS011;65428;53.194;6.132;2023-09-18T13:14:23;3.17;;;2.03;;
76566;SDS011;65428;53.194;6.132;2023-09-18T13:16:49;4.07;;;2.20;;
76566;SDS011;65428;53.194;6.132;2023-09-18T13:19:15;4.50;;;2.30;;
76566;SDS011;65428;53.194;6.132;2023-09-18T13:21:48;3.63;;;2.25;;
76566;SDS011;65428;53.194;6.132;2023-09-18T13:24:30;5.18;;;2.22;;
76566;SDS011;65428;53.194;6.132;2023-09-18T13:26:56;3.83;;;1.87;;
76566;SDS011;65428;53.194;6.132;2023-09-18T13:29:24;3.90;;;2.30;;
76566;SDS011;65428;53.194;6.132;2023-09-18T13:31:50;3.97;;;2.30;;
76566;SDS011;65428;53.194;6.132;2023-09-18T13:34:16;4.53;;;2.22;;
76566;SDS011;65428;53.194;6.132;2023-09-18T13:36:46;4.57;;;2.30;;
76566;SDS011;65428;53.194;6.132;2023-09-18T13:39:12;3.97;;;2.60;;
76566;SDS011;65428;53.194;6.132;2023-09-18T13:41:39;4.03;;;2.28;;
76566;SDS011;65428;53.194;6.132;2023-09-18T13:44:06;4.10;;;2.42;;
76566;SDS011;65428;53.194;6.132;2023-09-18T13:46:32;3.03;;;2.20;;
76566;SDS011;65428;53.194;6.132;2023-09-18T13:49:02;4.50;;;2.30;;
76566;SDS011;65428;53.194;6.132;2023-09-18T13:51:31;3.33;;;1.98;;
76566;SDS011;65428;53.194;6.132;2023-09-18T13:54:00;2.30;;;2.00;;
76566;SDS011;65428;53.194;6.132;2023-09-18T13:56:26;4.73;;;1.70;;
76566;SDS011;65428;53.194;6.132;2023-09-18T13:58:53;3.80;;;1.83;;
76566;SDS011;65428;53.194;6.132;2023-09-18T14:01:21;3.30;;;1.73;;
76566;SDS011;65428;53.194;6.132;2023-09-18T14:03:50;3.47;;;1.75;;
76566;SDS011;65428;53.194;6.132;2023-09-18T14:06:16;3.00;;;1.83;;
76566;SDS011;65428;53.194;6.132;2023-09-18T14:08:42;2.93;;;1.67;;
76566;SDS011;65428;53.194;6.132;2023-09-18T14:11:07;2.55;;;1.30;;
76566;SDS011;65428;53.194;6.132;2023-09-18T14:13:33;2.30;;;1.20;;
76566;SDS011;65428;53.194;6.132;2023-09-18T14:15:59;5.57;;;1.87;;
76566;SDS011;65428;53.194;6.132;2023-09-18T14:18:28;4.20;;;1.60;;
76566;SDS011;65428;53.194;6.132;2023-09-18T14:20:54;2.92;;;1.73;;
76566;SDS011;65428;53.194;6.132;2023-09-18T14:23:20;3.20;;;1.88;;
76566;SDS011;65428;53.194;6.132;2023-09-18T14:25:45;2.63;;;1.70;;
76566;SDS011;65428;53.194;6.132;2023-09-18T14:28:11;3.88;;;2.00;;
76566;SDS011;65428;53.194;6.132;2023-09-18T14:30:38;3.93;;;1.73;;
76566;SDS011;65428;53.194;6.132;2023-09-18T14:33:04;4.13;;;2.20;;
76566;SDS011;65428;53.194;6.132;2023-09-18T14:35:30;3.42;;;1.70;;
76566;SDS011;65428;53.194;6.132;2023-09-18T14:37:55;4.90;;;2.20;;
76566;SDS011;65428;53.194;6.132;2023-09-18T14:40:21;2.67;;;1.80;;
76566;SDS011;65428;53.194;6.132;2023-09-18T14:42:49;3.88;;;2.13;;
76566;SDS011;65428;53.194;6.132;2023-09-18T14:45:18;3.47;;;1.90;;
76566;SDS011;65428;53.194;6.132;2023-09-18T14:47:46;3.53;;;2.10;;
76566;SDS011;65428;53.194;6.132;2023-09-18T14:50:12;3.53;;;2.10;;
76566;SDS011;65428;53.194;6.132;2023-09-18T14:52:37;4.10;;;1.90;;
76566;SDS011;65428;53.194;6.132;2023-09-18T14:55:03;4.63;;;1.95;;
76566;SDS011;65428;53.194;6.132;2023-09-18T14:57:30;3.63;;;2.00;;